createdAt,value
2022-09-04T00:01:06.106Z,2.73
2022-09-04T00:03:41.450Z,3.67
2022-09-04T00:06:15.068Z,3.57
2022-09-04T00:08:53.951Z,3.93
2022-09-04T00:11:31.592Z,3.13
2022-09-04T00:14:02.981Z,4.10
2022-09-04T00:16:43.192Z,2.73
2022-09-04T00:19:16.051Z,3.13
2022-09-04T00:21:50.134Z,2.63
2022-09-04T00:24:19.400Z,3.47
2022-09-04T00:26:54.491Z,3.97
2022-09-04T00:29:28.702Z,3.47
2022-09-04T00:32:02.920Z,3.83
2022-09-04T00:34:43.005Z,3.60
2022-09-04T00:37:13.309Z,3.53
2022-09-04T00:39:46.343Z,3.13
2022-09-04T00:42:26.453Z,3.67
2022-09-04T00:45:09.770Z,3.30
2022-09-04T00:47:58.767Z,3.60
2022-09-04T00:50:40.322Z,3.47
2022-09-04T00:53:22.989Z,3.57
2022-09-04T00:55:59.974Z,3.30
2022-09-04T00:58:51.334Z,3.00
2022-09-04T01:01:23.593Z,2.87
2022-09-04T01:04:08.657Z,3.47
2022-09-04T01:06:42.845Z,3.43
2022-09-04T01:09:30.492Z,2.47
2022-09-04T01:12:08.666Z,2.30
2022-09-04T01:14:42.791Z,2.90
2022-09-04T01:17:17.819Z,2.37
2022-09-04T01:19:54.521Z,2.40
2022-09-04T01:22:57.090Z,2.73
2022-09-04T01:25:47.932Z,2.73
2022-09-04T01:28:22.263Z,2.63
2022-09-04T01:30:53.647Z,2.60
2022-09-04T01:33:27.468Z,3.10
2022-09-04T01:36:02.113Z,2.73
2022-09-04T01:38:35.538Z,2.63
2022-09-04T01:41:09.050Z,2.17
2022-09-04T01:43:37.481Z,2.27
2022-09-04T01:46:41.012Z,2.47
2022-09-04T01:49:14.206Z,2.60
2022-09-04T01:51:47.376Z,2.80
2022-09-04T01:54:28.954Z,2.40
2022-09-04T01:57:08.773Z,2.33
2022-09-04T01:59:44.375Z,2.10
2022-09-04T02:02:16.672Z,2.20
2022-09-04T02:04:51.434Z,2.23
2022-09-04T02:07:25.472Z,2.03
2022-09-04T02:10:01.852Z,1.77
2022-09-04T02:12:36.374Z,2.10
2022-09-04T02:15:10.077Z,2.13
2022-09-04T02:17:44.884Z,2.00
2022-09-04T02:20:25.590Z,1.70
2022-09-04T02:23:04.535Z,2.17
2022-09-04T02:25:34.304Z,2.00
2022-09-04T02:28:21.380Z,1.93
2022-09-04T02:30:54.653Z,1.90
2022-09-04T02:33:28.252Z,2.03
2022-09-04T02:36:02.553Z,1.83
2022-09-04T02:38:34.728Z,1.90
2022-09-04T02:41:07.826Z,2.30
2022-09-04T02:43:47.842Z,2.20
2022-09-04T02:46:20.421Z,1.80
2022-09-04T02:48:58.139Z,2.30
2022-09-04T02:51:38.807Z,2.53
2022-09-04T02:54:12.582Z,2.50
2022-09-04T02:56:48.031Z,1.53
2022-09-04T02:59:25.757Z,2.13
2022-09-04T03:01:59.517Z,2.23
2022-09-04T03:04:33.131Z,2.00
2022-09-04T03:07:07.276Z,2.27
2022-09-04T03:09:40.297Z,2.33
2022-09-04T03:12:26.981Z,1.73
2022-09-04T03:15:02.716Z,1.87
2022-09-04T03:17:36.289Z,1.93
2022-09-04T03:20:09.453Z,2.60
2022-09-04T03:22:43.264Z,1.87
2022-09-04T03:25:30.051Z,2.50
2022-09-04T03:27:58.406Z,1.90
2022-09-04T03:30:29.217Z,2.00
2022-09-04T03:33:03.981Z,1.77
2022-09-04T03:35:38.784Z,2.53
2022-09-04T03:38:16.887Z,2.20
2022-09-04T03:40:51.388Z,2.47
2022-09-04T03:43:33.840Z,2.03
2022-09-04T03:46:11.689Z,2.00
2022-09-04T03:48:51.692Z,2.20
2022-09-04T03:51:26.414Z,1.80
2022-09-04T03:54:05.690Z,1.83
2022-09-04T03:56:57.659Z,2.60
2022-09-04T03:59:43.023Z,2.37
2022-09-04T04:02:21.380Z,2.10
2022-09-04T04:05:11.049Z,2.13
2022-09-04T04:07:47.153Z,2.50
2022-09-04T04:10:23.819Z,2.80
2022-09-04T04:13:13.037Z,2.70
2022-09-04T04:15:52.542Z,2.30
2022-09-04T04:18:41.220Z,2.10
2022-09-04T04:21:14.390Z,2.30
2022-09-04T04:24:14.812Z,2.27
2022-09-04T04:26:56.095Z,2.30
2022-09-04T04:29:42.678Z,2.73
2022-09-04T04:32:30.232Z,2.47
2022-09-04T04:35:11.652Z,2.17
2022-09-04T04:37:52.042Z,2.20
2022-09-04T04:40:28.624Z,2.30
2022-09-04T04:43:01.355Z,2.30
2022-09-04T04:45:50.586Z,2.70
2022-09-04T04:48:51.433Z,2.80
2022-09-04T04:51:33.417Z,2.60
2022-09-04T04:54:14.909Z,2.83
2022-09-04T04:56:50.079Z,2.53
2022-09-04T04:59:23.773Z,3.27
2022-09-04T05:02:00.964Z,3.10
2022-09-04T05:04:41.919Z,2.87
2022-09-04T05:07:23.822Z,2.47
2022-09-04T05:09:58.156Z,2.90
2022-09-04T05:12:33.674Z,2.00
2022-09-04T05:15:07.989Z,2.60
2022-09-04T05:17:41.621Z,2.33
2022-09-04T05:20:25.205Z,2.20
2022-09-04T05:23:01.399Z,2.73
2022-09-04T05:25:37.084Z,2.97
2022-09-04T05:28:13.290Z,2.23
2022-09-04T05:30:49.330Z,2.80
2022-09-04T05:33:25.214Z,2.70
2022-09-04T05:35:58.088Z,2.37
2022-09-04T05:38:32.676Z,2.40
2022-09-04T05:41:20.309Z,2.70
2022-09-04T05:44:08.856Z,2.17
2022-09-04T05:46:58.503Z,2.63
2022-09-04T05:49:37.535Z,2.80
2022-09-04T05:52:41.096Z,2.57
2022-09-04T05:55:33.673Z,2.90
2022-09-04T05:58:11.074Z,2.23
2022-09-04T06:00:47.901Z,2.80
2022-09-04T06:03:41.143Z,2.27
2022-09-04T06:06:16.985Z,2.43
2022-09-04T06:09:23.332Z,2.83
2022-09-04T06:12:07.080Z,2.80
2022-09-04T06:15:02.308Z,2.70
2022-09-04T06:17:40.100Z,2.63
2022-09-04T06:20:28.998Z,2.53
2022-09-04T06:23:11.187Z,2.00
2022-09-04T06:26:02.408Z,1.70
2022-09-04T06:29:04.893Z,2.50
2022-09-04T06:32:04.404Z,2.20
2022-09-04T06:34:45.240Z,2.80
2022-09-04T06:37:20.068Z,3.07
2022-09-04T06:40:19.230Z,2.20
2022-09-04T06:42:57.356Z,7.17
2022-09-04T06:45:37.344Z,7.93
2022-09-04T06:48:12.550Z,5.83
2022-09-04T06:50:50.714Z,5.47
2022-09-04T06:53:27.467Z,4.10
2022-09-04T06:56:09.990Z,3.30
2022-09-04T06:59:01.313Z,3.07
2022-09-04T07:01:41.290Z,2.60
2022-09-04T07:04:20.598Z,2.80
2022-09-04T07:06:57.702Z,2.70
2022-09-04T07:09:30.312Z,2.40
2022-09-04T07:12:15.420Z,2.60
2022-09-04T07:15:06.903Z,2.43
2022-09-04T07:17:40.719Z,3.33
2022-09-04T07:20:17.905Z,3.60
2022-09-04T07:22:55.598Z,2.43
2022-09-04T07:25:27.613Z,2.50
2022-09-04T07:28:10.633Z,2.80
2022-09-04T07:30:44.052Z,2.50
2022-09-04T07:33:18.072Z,2.33
2022-09-04T07:35:51.802Z,2.73
2022-09-04T07:38:24.920Z,2.70
2022-09-04T07:40:58.940Z,2.30
2022-09-04T07:43:35.105Z,2.73
2022-09-04T07:46:06.644Z,2.43
2022-09-04T07:48:42.240Z,2.20
2022-09-04T07:51:14.393Z,2.60
2022-09-04T07:53:54.813Z,2.30
2022-09-04T07:56:30.100Z,2.67
2022-09-04T07:59:19.309Z,2.10
2022-09-04T08:02:01.626Z,2.07
2022-09-04T08:04:59.602Z,2.40
2022-09-04T08:07:51.167Z,2.50
2022-09-04T08:10:27.615Z,1.93
2022-09-04T08:13:20.746Z,1.97
2022-09-04T08:15:54.406Z,2.40
2022-09-04T08:18:34.393Z,3.33
2022-09-04T08:21:14.037Z,2.77
2022-09-04T08:23:57.627Z,3.50
2022-09-04T08:26:32.500Z,3.30
2022-09-04T08:29:29.852Z,2.97
2022-09-04T08:32:18.252Z,3.53
2022-09-04T08:34:59.177Z,3.10
2022-09-04T08:37:30.304Z,2.13
2022-09-04T08:40:14.923Z,2.43
2022-09-04T08:43:06.225Z,2.80
2022-09-04T08:46:09.384Z,2.70
2022-09-04T08:49:12.802Z,2.73
2022-09-04T08:52:18.989Z,3.00
2022-09-04T08:55:04.781Z,2.30
2022-09-04T08:58:09.104Z,3.10
2022-09-04T09:01:08.373Z,2.13
2022-09-04T09:04:00.847Z,2.33
2022-09-04T09:07:00.660Z,2.80
2022-09-04T09:09:53.428Z,2.93
2022-09-04T09:12:41.677Z,2.73
2022-09-04T09:15:46.945Z,2.70
2022-09-04T09:18:31.547Z,2.47
2022-09-04T09:21:08.098Z,2.40
2022-09-04T09:24:07.898Z,2.67
2022-09-04T09:26:44.894Z,2.70
2022-09-04T09:29:32.098Z,2.03
2022-09-04T09:32:43.441Z,2.07
2022-09-04T09:35:55.893Z,5.07
2022-09-04T09:38:47.458Z,3.60
2022-09-04T09:41:59.651Z,2.77
2022-09-04T09:45:06.355Z,2.50
2022-09-04T09:48:00.361Z,1.50
2022-09-04T09:51:03.669Z,1.60
2022-09-04T09:54:02.069Z,1.37
2022-09-04T09:56:43.273Z,1.77
2022-09-04T10:00:07.291Z,1.40
2022-09-04T10:03:16.826Z,1.40
2022-09-04T10:06:23.657Z,1.20
2022-09-04T10:09:24.680Z,1.27
2022-09-04T10:12:27.202Z,1.00
2022-09-04T10:15:32.132Z,1.07
2022-09-04T10:18:33.389Z,1.43
2022-09-04T10:21:13.655Z,1.17
2022-09-04T10:24:26.384Z,0.80
2022-09-04T10:27:28.393Z,1.20
2022-09-04T10:30:08.069Z,1.17
2022-09-04T10:33:07.941Z,0.80
2022-09-04T10:35:52.729Z,1.20
2022-09-04T10:38:58.351Z,1.00
2022-09-04T10:41:47.980Z,1.27
2022-09-04T10:44:42.285Z,1.10
2022-09-04T10:47:18.084Z,1.30
2022-09-04T10:50:21.917Z,1.40
2022-09-04T10:53:21.270Z,1.33
2022-09-04T10:56:03.714Z,1.60
2022-09-04T10:58:41.982Z,1.43
2022-09-04T11:01:55.302Z,1.50
2022-09-04T11:05:01.206Z,1.87
2022-09-04T11:08:04.315Z,1.80
2022-09-04T11:10:51.002Z,1.73
2022-09-04T11:14:06.270Z,1.37
2022-09-04T11:16:50.598Z,1.60
2022-09-04T11:20:00.620Z,1.50
2022-09-04T11:23:05.210Z,1.40
2022-09-04T11:26:07.010Z,1.70
2022-09-04T11:28:44.361Z,1.47
2022-09-04T11:31:35.549Z,1.73
2022-09-04T11:34:40.133Z,1.40
2022-09-04T11:37:33.648Z,1.60
2022-09-04T11:40:55.469Z,1.70
2022-09-04T11:43:42.753Z,1.60
2022-09-04T11:46:26.315Z,2.60
2022-09-04T11:49:23.137Z,3.40
2022-09-04T11:52:18.220Z,3.07
2022-09-04T11:55:10.874Z,3.57
2022-09-04T11:57:49.827Z,3.47
2022-09-04T12:00:20.167Z,3.33
2022-09-04T12:03:23.169Z,2.83
2022-09-04T12:06:09.816Z,2.93
2022-09-04T12:09:03.483Z,3.40
2022-09-04T12:12:08.268Z,3.20
2022-09-04T12:15:15.502Z,3.63
2022-09-04T12:18:04.027Z,3.53
2022-09-04T12:20:52.691Z,3.57
2022-09-04T12:23:38.510Z,3.10
2022-09-04T12:26:26.773Z,3.40
2022-09-04T12:29:28.450Z,3.43
2022-09-04T12:32:25.398Z,3.50
2022-09-04T12:35:17.732Z,3.30
2022-09-04T12:38:08.007Z,4.17
2022-09-04T12:40:42.239Z,4.10
2022-09-04T12:43:24.231Z,3.57
2022-09-04T12:46:00.544Z,3.30
2022-09-04T12:48:36.735Z,3.90
2022-09-04T12:51:12.328Z,4.17
2022-09-04T12:54:14.164Z,4.00
2022-09-04T12:56:49.277Z,4.20
2022-09-04T12:59:52.895Z,4.73
2022-09-04T13:02:39.425Z,5.00
2022-09-04T13:05:24.688Z,6.17
2022-09-04T13:08:05.198Z,5.20
2022-09-04T13:10:41.374Z,5.00
2022-09-04T13:13:17.178Z,5.67
2022-09-04T13:15:55.318Z,6.13
2022-09-04T13:18:34.848Z,4.83
2022-09-04T13:21:11.614Z,5.60
2022-09-04T13:23:50.445Z,6.20
2022-09-04T13:26:29.782Z,5.57
2022-09-04T13:29:08.948Z,6.27
2022-09-04T13:32:03.400Z,6.07
2022-09-04T13:34:39.178Z,5.20
2022-09-04T13:37:13.527Z,5.50
2022-09-04T13:40:01.170Z,6.13
2022-09-04T13:43:01.014Z,6.40
2022-09-04T13:45:31.344Z,5.97
2022-09-04T13:48:02.325Z,6.60
2022-09-04T13:50:32.546Z,7.00
2022-09-04T13:53:05.714Z,7.10
2022-09-04T13:55:39.072Z,7.23
2022-09-04T13:58:11.714Z,6.00
2022-09-04T14:00:45.992Z,7.10
2022-09-04T14:03:21.030Z,7.17
2022-09-04T14:05:50.839Z,7.20
2022-09-04T14:08:21.470Z,6.60
2022-09-04T14:11:18.194Z,6.83
2022-09-04T14:14:13.146Z,7.50
2022-09-04T14:16:42.452Z,6.67
2022-09-04T14:19:18.708Z,6.50
2022-09-04T14:22:12.525Z,6.67
2022-09-04T14:24:47.104Z,6.10
2022-09-04T14:27:22.723Z,7.40
2022-09-04T14:30:02.147Z,6.27
2022-09-04T14:32:41.198Z,6.60
2022-09-04T14:35:13.939Z,5.83
2022-09-04T14:37:53.350Z,6.70
2022-09-04T14:40:26.943Z,5.10
2022-09-04T14:42:58.516Z,4.93
2022-09-04T14:45:46.655Z,3.73
2022-09-04T14:48:17.650Z,4.50
2022-09-04T14:50:49.300Z,4.80
2022-09-04T14:53:23.940Z,4.07
2022-09-04T14:56:16.786Z,3.60
2022-09-04T14:58:50.869Z,3.17
2022-09-04T15:01:21.052Z,3.73
2022-09-04T15:03:55.478Z,2.87
2022-09-04T15:06:32.417Z,3.50
2022-09-04T15:09:20.928Z,3.73
2022-09-04T15:12:08.884Z,3.90
2022-09-04T15:14:47.146Z,2.97
2022-09-04T15:17:26.669Z,2.97
2022-09-04T15:19:59.932Z,3.27
2022-09-04T15:22:32.301Z,3.20
2022-09-04T15:25:06.060Z,2.90
2022-09-04T15:27:40.788Z,2.73
2022-09-04T15:30:18.893Z,3.30
2022-09-04T15:32:48.592Z,2.70
2022-09-04T15:35:23.057Z,3.20
2022-09-04T15:37:54.132Z,3.60
2022-09-04T15:40:28.499Z,3.80
2022-09-04T15:43:11.837Z,3.37
2022-09-04T15:45:47.253Z,3.60
2022-09-04T15:48:28.087Z,4.03
2022-09-04T15:51:12.243Z,4.97
2022-09-04T15:53:42.831Z,3.93
2022-09-04T15:56:29.737Z,4.10
2022-09-04T15:59:02.933Z,3.47
2022-09-04T16:01:40.494Z,4.27
2022-09-04T16:04:14.661Z,4.40
2022-09-04T16:06:47.956Z,4.07
2022-09-04T16:09:23.718Z,4.13
2022-09-04T16:12:00.738Z,4.77
2022-09-04T16:14:32.461Z,4.20
2022-09-04T16:17:06.845Z,4.20
2022-09-04T16:19:41.359Z,4.20
2022-09-04T16:22:17.852Z,4.23
2022-09-04T16:24:48.360Z,4.10
2022-09-04T16:27:18.557Z,3.97
2022-09-04T16:29:49.304Z,4.67
2022-09-04T16:32:23.352Z,4.70
2022-09-04T16:34:54.972Z,4.80
2022-09-04T16:37:28.690Z,4.20
2022-09-04T16:40:02.634Z,5.80
2022-09-04T16:42:37.507Z,7.50
2022-09-04T16:45:11.616Z,7.70
2022-09-04T16:47:45.481Z,6.03
2022-09-04T16:50:23.631Z,4.00
2022-09-04T16:53:13.324Z,4.80
2022-09-04T16:55:49.777Z,4.93
2022-09-04T16:58:33.937Z,5.57
2022-09-04T17:01:14.376Z,4.60
2022-09-04T17:03:54.013Z,4.60
2022-09-04T17:06:46.767Z,3.80
2022-09-04T17:09:21.824Z,3.37
2022-09-04T17:11:55.730Z,4.20
2022-09-04T17:14:34.310Z,4.43
2022-09-04T17:17:08.979Z,4.67
2022-09-04T17:20:03.596Z,4.80
2022-09-04T17:29:02.789Z,4.10
2022-09-04T17:29:18.805Z,4.80
2022-09-04T17:29:20.806Z,5.00
2022-09-04T17:31:25.779Z,4.67
2022-09-04T17:39:15.567Z,4.90
2022-09-04T17:40:52.072Z,5.30
2022-09-04T17:40:57.403Z,5.10
2022-09-04T17:42:40.567Z,3.60
2022-09-04T17:45:22.410Z,4.80
2022-09-04T17:48:02.236Z,7.13
2022-09-04T17:50:31.329Z,7.30
2022-09-04T17:53:02.363Z,6.20
2022-09-04T17:55:34.975Z,11.77
2022-09-04T17:58:10.221Z,10.00
2022-09-04T18:01:15.047Z,9.60
2022-09-04T18:04:01.412Z,7.17
2022-09-04T18:06:41.668Z,5.47
2022-09-04T18:09:15.500Z,6.33
2022-09-04T18:12:03.388Z,5.27
2022-09-04T18:14:37.436Z,6.27
2022-09-04T18:17:12.689Z,5.00
2022-09-04T18:19:46.121Z,5.23
2022-09-04T18:22:31.852Z,5.50
2022-09-04T18:25:14.342Z,5.50
2022-09-04T18:28:06.419Z,4.87
2022-09-04T18:37:09.235Z,5.47
2022-09-04T18:37:21.673Z,6.50
2022-09-04T18:37:27.094Z,4.77
2022-09-04T18:39:49.702Z,5.43
2022-09-04T18:49:55.466Z,6.10
2022-09-04T18:50:32.004Z,6.53
2022-09-04T18:50:32.089Z,5.53
2022-09-04T18:53:52.795Z,5.83
2022-09-04T18:56:23.683Z,5.53
2022-09-04T18:58:58.072Z,6.37
2022-09-04T19:01:29.975Z,5.00
2022-09-04T19:04:18.482Z,4.20
2022-09-04T19:06:55.793Z,5.03
2022-09-04T19:10:03.277Z,6.10
2022-09-04T19:12:47.146Z,5.40
2022-09-04T19:15:49.192Z,5.10
2022-09-04T19:18:26.809Z,4.97
2022-09-04T19:21:06.373Z,5.40
2022-09-04T19:23:41.440Z,4.73
2022-09-04T19:26:15.522Z,4.07
2022-09-04T19:28:54.532Z,4.60
2022-09-04T19:31:33.115Z,4.10
2022-09-04T19:34:06.750Z,3.70
2022-09-04T19:36:40.415Z,4.23
2022-09-04T19:46:00.356Z,4.27
2022-09-04T19:46:05.152Z,3.80
2022-09-04T19:46:14.824Z,4.00
2022-09-04T19:48:18.754Z,4.80
2022-09-04T19:53:20.213Z,3.97
2022-09-04T19:53:49.564Z,3.90
2022-09-04T19:56:27.050Z,4.03
2022-09-04T19:58:57.768Z,3.80
2022-09-04T20:01:28.976Z,3.20
2022-09-04T20:04:01.163Z,3.87
2022-09-04T20:06:31.333Z,4.00
2022-09-04T20:09:03.845Z,4.20
2022-09-04T20:11:36.526Z,3.83
2022-09-04T20:14:15.148Z,3.97
2022-09-04T20:16:49.709Z,3.00
2022-09-04T20:19:28.014Z,3.20
2022-09-04T20:22:04.244Z,4.00
2022-09-04T20:25:01.573Z,3.83
2022-09-04T20:27:33.607Z,4.27
2022-09-04T20:30:07.572Z,5.10
2022-09-04T20:32:39.415Z,4.13
2022-09-04T20:35:18.084Z,4.90
2022-09-04T20:37:53.365Z,4.33
2022-09-04T20:40:30.286Z,3.83
2022-09-04T20:43:11.425Z,4.60
2022-09-04T20:49:12.174Z,4.03
2022-09-04T20:52:59.848Z,4.10
2022-09-04T20:53:05.372Z,3.30
2022-09-04T20:55:01.718Z,4.57
2022-09-04T21:00:44.030Z,4.07
2022-09-04T21:03:17.615Z,4.20
2022-09-04T21:03:39.200Z,3.53
2022-09-04T21:06:24.501Z,3.13
2022-09-04T21:09:07.172Z,3.83
2022-09-04T21:11:40.980Z,4.20
2022-09-04T21:14:15.402Z,4.37
2022-09-04T21:16:56.320Z,4.53
2022-09-04T21:20:02.030Z,3.30
2022-09-04T21:22:43.254Z,5.30
2022-09-04T21:25:33.170Z,5.40
2022-09-04T21:28:38.724Z,5.03
2022-09-04T21:31:21.228Z,5.70
2022-09-04T21:34:01.003Z,4.73
2022-09-04T21:36:34.546Z,4.50
2022-09-04T21:39:38.115Z,3.70
2022-09-04T21:42:36.260Z,4.33
2022-09-04T21:45:24.731Z,3.57
2022-09-04T21:48:17.885Z,3.87
2022-09-04T21:51:18.630Z,4.83
2022-09-04T21:54:38.151Z,4.07
2022-09-04T22:02:40.982Z,3.60
2022-09-04T22:02:45.677Z,3.90
2022-09-04T22:03:22.053Z,3.10
2022-09-04T22:05:58.141Z,3.90
2022-09-04T22:13:27.024Z,4.20
2022-09-04T22:13:40.446Z,4.50
2022-09-04T22:14:46.389Z,4.80
2022-09-04T22:17:46.104Z,3.80
2022-09-04T22:20:22.072Z,4.97
2022-09-04T22:23:20.256Z,4.17
2022-09-04T22:25:49.355Z,3.43
2022-09-04T22:28:52.525Z,4.47
2022-09-04T22:31:57.901Z,3.87
2022-09-04T22:34:52.983Z,3.23
2022-09-04T22:37:42.789Z,3.43
2022-09-04T22:40:35.785Z,3.80
2022-09-04T22:43:24.307Z,3.87
2022-09-04T22:46:32.800Z,4.23
2022-09-04T22:49:14.141Z,4.03
2022-09-04T22:52:15.060Z,3.30
2022-09-04T22:54:54.758Z,3.80
2022-09-04T22:57:28.486Z,4.00
2022-09-04T23:00:17.674Z,4.10
2022-09-04T23:03:12.981Z,4.60
2022-09-04T23:07:43.744Z,4.37
2022-09-04T23:13:58.274Z,2.97
2022-09-04T23:14:02.505Z,4.20
2022-09-04T23:15:36.769Z,6.33
2022-09-04T23:22:30.890Z,3.83
2022-09-04T23:26:33.702Z,3.43
2022-09-04T23:26:48.000Z,4.20
2022-09-04T23:27:29.461Z,4.20
2022-09-04T23:30:25.172Z,3.87
2022-09-04T23:33:37.343Z,3.97
2022-09-04T23:36:29.658Z,4.93
2022-09-04T23:39:17.035Z,3.80
2022-09-04T23:41:57.732Z,3.93
2022-09-04T23:44:40.357Z,3.43
2022-09-04T23:47:47.948Z,3.77
2022-09-04T23:50:26.135Z,4.07
2022-09-04T23:53:05.024Z,3.93
2022-09-04T23:55:49.158Z,3.90
2022-09-04T23:58:49.442Z,3.83
